sensor_id;sensor_type;location;lat;lon;timestamp;pressure;altitude;pressure_sealevel;temperature;humidity
48364;BME280;34170;54.364;18.582;2023-04-04T00:00:51;101462.69;;;2.74;53.82
48364;BME280;34170;54.364;18.582;2023-04-04T00:03:18;101464.69;;;2.69;54.06
48364;BME280;34170;54.364;18.582;2023-04-04T00:05:46;101465.47;;;2.51;55.16
48364;BME280;34170;54.364;18.582;2023-04-04T00:08:13;101470.56;;;2.55;55.43
48364;BME280;34170;54.364;18.582;2023-04-04T00:10:41;101471.25;;;2.60;55.47
48364;BME280;34170;54.364;18.582;2023-04-04T00:13:09;101456.59;;;2.72;54.57
48364;BME280;34170;54.364;18.582;2023-04-04T00:15:36;101467.00;;;2.77;54.15
48364;BME280;34170;54.364;18.582;2023-04-04T00:18:03;101462.03;;;2.69;54.37
48364;BME280;34170;54.364;18.582;2023-04-04T00:20:31;101457.72;;;2.66;54.46
48364;BME280;34170;54.364;18.582;2023-04-04T00:22:58;101459.47;;;2.66;53.94
48364;BME280;34170;54.364;18.582;2023-04-04T00:25:27;101454.88;;;2.28;53.56
48364;BME280;34170;54.364;18.582;2023-04-04T00:27:54;101440.69;;;2.07;54.92
48364;BME280;34170;54.364;18.582;2023-04-04T00:30:22;101444.00;;;2.13;54.60
48364;BME280;34170;54.364;18.582;2023-04-04T00:32:49;101447.41;;;2.38;53.35
48364;BME280;34170;54.364;18.582;2023-04-04T00:35:18;101433.97;;;2.21;52.50
48364;BME280;34170;54.364;18.582;2023-04-04T00:37:45;101446.94;;;2.49;52.02
48364;BME280;34170;54.364;18.582;2023-04-04T00:40:13;101449.88;;;2.63;52.45
48364;BME280;34170;54.364;18.582;2023-04-04T00:42:40;101444.41;;;2.46;52.50
48364;BME280;34170;54.364;18.582;2023-04-04T00:45:08;101441.41;;;2.33;54.20
48364;BME280;34170;54.364;18.582;2023-04-04T00:47:37;101435.25;;;2.33;55.28
48364;BME280;34170;54.364;18.582;2023-04-04T00:50:06;101435.66;;;2.44;54.86
48364;BME280;34170;54.364;18.582;2023-04-04T00:52:33;101432.88;;;2.25;54.25
48364;BME280;34170;54.364;18.582;2023-04-04T00:55:02;101422.88;;;2.32;54.23
48364;BME280;34170;54.364;18.582;2023-04-04T00:57:32;101425.09;;;2.42;53.67
48364;BME280;34170;54.364;18.582;2023-04-04T01:00:02;101420.91;;;2.37;54.11
48364;BME280;34170;54.364;18.582;2023-04-04T01:02:33;101422.09;;;2.50;52.88
48364;BME280;34170;54.364;18.582;2023-04-04T01:05:02;101411.16;;;2.58;52.80
48364;BME280;34170;54.364;18.582;2023-04-04T01:07:30;101418.72;;;2.67;52.78
48364;BME280;34170;54.364;18.582;2023-04-04T01:09:59;101407.25;;;2.66;53.59
48364;BME280;34170;54.364;18.582;2023-04-04T01:12:27;101416.25;;;2.62;53.01
48364;BME280;34170;54.364;18.582;2023-04-04T01:14:55;101392.44;;;2.40;53.73
48364;BME280;34170;54.364;18.582;2023-04-04T01:17:23;101408.56;;;2.56;53.35
48364;BME280;34170;54.364;18.582;2023-04-04T01:22:30;101400.81;;;2.72;54.15
48364;BME280;34170;54.364;18.582;2023-04-04T01:24:59;101395.31;;;2.75;53.11
48364;BME280;34170;54.364;18.582;2023-04-04T01:27:28;101393.88;;;2.68;52.12
48364;BME280;34170;54.364;18.582;2023-04-04T01:30:05;101392.91;;;2.71;52.21
48364;BME280;34170;54.364;18.582;2023-04-04T01:32:43;101393.03;;;2.67;50.96
48364;BME280;34170;54.364;18.582;2023-04-04T01:35:25;101390.25;;;2.71;50.10
48364;BME280;34170;54.364;18.582;2023-04-04T01:38:14;101383.25;;;2.68;50.06
48364;BME280;34170;54.364;18.582;2023-04-04T01:40:49;101383.53;;;2.62;48.71
48364;BME280;34170;54.364;18.582;2023-04-04T01:43:19;101382.09;;;2.55;48.81
48364;BME280;34170;54.364;18.582;2023-04-04T01:45:47;101380.88;;;2.62;49.54
48364;BME280;34170;54.364;18.582;2023-04-04T01:48:16;101378.63;;;2.32;50.21
48364;BME280;34170;54.364;18.582;2023-04-04T01:50:47;101382.72;;;2.39;51.14
48364;BME280;34170;54.364;18.582;2023-04-04T01:53:15;101373.56;;;2.46;51.75
48364;BME280;34170;54.364;18.582;2023-04-04T01:55:43;101372.50;;;2.30;51.92
48364;BME280;34170;54.364;18.582;2023-04-04T01:58:11;101370.91;;;2.67;51.85
48364;BME280;34170;54.364;18.582;2023-04-04T02:00:38;101369.72;;;2.54;53.39
48364;BME280;34170;54.364;18.582;2023-04-04T02:03:06;101377.88;;;2.70;52.16
48364;BME280;34170;54.364;18.582;2023-04-04T02:05:34;101364.47;;;2.73;52.05
48364;BME280;34170;54.364;18.582;2023-04-04T02:08:01;101369.06;;;2.48;52.19
48364;BME280;34170;54.364;18.582;2023-04-04T02:10:38;101363.91;;;2.45;51.51
48364;BME280;34170;54.364;18.582;2023-04-04T02:13:06;101352.06;;;2.53;52.20
48364;BME280;34170;54.364;18.582;2023-04-04T02:15:33;101360.50;;;2.42;51.32
48364;BME280;34170;54.364;18.582;2023-04-04T02:18:01;101348.75;;;2.47;52.19
48364;BME280;34170;54.364;18.582;2023-04-04T02:20:30;101349.53;;;2.70;51.56
48364;BME280;34170;54.364;18.582;2023-04-04T02:22:57;101335.44;;;2.68;52.75
48364;BME280;34170;54.364;18.582;2023-04-04T02:25:25;101336.75;;;2.78;52.78
48364;BME280;34170;54.364;18.582;2023-04-04T02:27:52;101336.63;;;2.81;52.37
48364;BME280;34170;54.364;18.582;2023-04-04T02:30:20;101344.47;;;2.84;52.06
48364;BME280;34170;54.364;18.582;2023-04-04T02:32:48;101338.91;;;2.70;52.90
48364;BME280;34170;54.364;18.582;2023-04-04T02:35:18;101333.44;;;2.54;52.45
48364;BME280;34170;54.364;18.582;2023-04-04T02:37:46;101331.16;;;2.65;52.85
48364;BME280;34170;54.364;18.582;2023-04-04T02:40:22;101338.50;;;2.79;52.77
48364;BME280;34170;54.364;18.582;2023-04-04T02:42:49;101338.25;;;2.84;52.42
48364;BME280;34170;54.364;18.582;2023-04-04T02:45:18;101330.72;;;2.75;52.20
48364;BME280;34170;54.364;18.582;2023-04-04T02:47:57;101330.47;;;2.81;52.95
48364;BME280;34170;54.364;18.582;2023-04-04T02:50:35;101324.97;;;2.65;51.61
48364;BME280;34170;54.364;18.582;2023-04-04T02:53:03;101321.38;;;2.66;51.98
48364;BME280;34170;54.364;18.582;2023-04-04T02:55:33;101329.88;;;2.74;52.61
48364;BME280;34170;54.364;18.582;2023-04-04T02:58:01;101328.00;;;2.76;52.68
48364;BME280;34170;54.364;18.582;2023-04-04T03:00:29;101325.69;;;2.69;53.44
48364;BME280;34170;54.364;18.582;2023-04-04T03:02:56;101324.38;;;2.58;53.99
48364;BME280;34170;54.364;18.582;2023-04-04T03:05:39;101326.44;;;2.72;54.25
48364;BME280;34170;54.364;18.582;2023-04-04T03:08:06;101329.50;;;2.63;54.32
48364;BME280;34170;54.364;18.582;2023-04-04T03:10:34;101325.16;;;2.60;54.36
48364;BME280;34170;54.364;18.582;2023-04-04T03:13:02;101325.06;;;2.43;54.72
48364;BME280;34170;54.364;18.582;2023-04-04T03:15:32;101328.38;;;2.48;54.01
48364;BME280;34170;54.364;18.582;2023-04-04T03:18:01;101326.56;;;2.48;53.81
48364;BME280;34170;54.364;18.582;2023-04-04T03:20:31;101325.59;;;2.31;53.81
48364;BME280;34170;54.364;18.582;2023-04-04T03:22:59;101323.13;;;2.46;53.77
48364;BME280;34170;54.364;18.582;2023-04-04T03:25:26;101321.59;;;2.41;53.58
48364;BME280;34170;54.364;18.582;2023-04-04T03:27:54;101301.09;;;2.44;53.12
48364;BME280;34170;54.364;18.582;2023-04-04T03:30:24;101306.41;;;2.44;53.80
48364;BME280;34170;54.364;18.582;2023-04-04T03:32:52;101309.72;;;2.50;53.54
48364;BME280;34170;54.364;18.582;2023-04-04T03:35:20;101303.81;;;2.43;53.42
48364;BME280;34170;54.364;18.582;2023-04-04T03:37:47;101299.09;;;2.50;52.77
48364;BME280;34170;54.364;18.582;2023-04-04T03:40:14;101303.25;;;2.55;52.77
48364;BME280;34170;54.364;18.582;2023-04-04T03:42:42;101302.53;;;2.52;52.94
48364;BME280;34170;54.364;18.582;2023-04-04T03:45:11;101304.13;;;2.56;52.60
48364;BME280;34170;54.364;18.582;2023-04-04T03:47:41;101297.09;;;2.55;52.81
48364;BME280;34170;54.364;18.582;2023-04-04T03:50:09;101291.78;;;2.55;51.98
48364;BME280;34170;54.364;18.582;2023-04-04T03:52:42;101302.53;;;2.52;52.37
48364;BME280;34170;54.364;18.582;2023-04-04T03:55:09;101291.06;;;2.51;51.91
48364;BME280;34170;54.364;18.582;2023-04-04T03:57:37;101292.34;;;2.42;52.33
48364;BME280;34170;54.364;18.582;2023-04-04T04:00:09;101291.66;;;2.58;51.80
48364;BME280;34170;54.364;18.582;2023-04-04T04:02:39;101295.00;;;2.42;52.38
48364;BME280;34170;54.364;18.582;2023-04-04T04:05:09;101288.75;;;2.43;52.64
48364;BME280;34170;54.364;18.582;2023-04-04T04:07:36;101294.75;;;2.28;53.42
48364;BME280;34170;54.364;18.582;2023-04-04T04:10:04;101282.63;;;2.41;53.05
48364;BME280;34170;54.364;18.582;2023-04-04T04:12:32;101282.88;;;2.56;52.71
48364;BME280;34170;54.364;18.582;2023-04-04T04:15:00;101284.25;;;2.64;52.86
48364;BME280;34170;54.364;18.582;2023-04-04T04:17:31;101274.78;;;2.59;52.17
48364;BME280;34170;54.364;18.582;2023-04-04T04:20:00;101280.47;;;2.70;51.58
48364;BME280;34170;54.364;18.582;2023-04-04T04:22:35;101289.00;;;2.77;51.59
48364;BME280;34170;54.364;18.582;2023-04-04T04:25:04;101277.81;;;2.70;51.20
48364;BME280;34170;54.364;18.582;2023-04-04T04:27:32;101289.66;;;2.63;51.84
48364;BME280;34170;54.364;18.582;2023-04-04T04:30:00;101282.88;;;2.56;50.62
48364;BME280;34170;54.364;18.582;2023-04-04T04:32:33;101290.66;;;2.60;50.45
48364;BME280;34170;54.364;18.582;2023-04-04T04:35:01;101295.66;;;2.47;49.71
48364;BME280;34170;54.364;18.582;2023-04-04T04:37:33;101295.00;;;2.42;49.72
48364;BME280;34170;54.364;18.582;2023-04-04T04:40:02;101287.69;;;2.47;49.17
48364;BME280;34170;54.364;18.582;2023-04-04T04:42:36;101287.69;;;2.27;48.32
48364;BME280;34170;54.364;18.582;2023-04-04T04:45:05;101291.13;;;2.50;48.51
48364;BME280;34170;54.364;18.582;2023-04-04T04:47:34;101287.88;;;2.43;48.72
48364;BME280;34170;54.364;18.582;2023-04-04T04:50:06;101288.00;;;2.60;48.59
48364;BME280;34170;54.364;18.582;2023-04-04T04:52:42;101294.94;;;2.44;49.32
48364;BME280;34170;54.364;18.582;2023-04-04T04:55:12;101285.13;;;2.65;49.43
48364;BME280;34170;54.364;18.582;2023-04-04T04:57:48;101286.88;;;2.85;49.83
48364;BME280;34170;54.364;18.582;2023-04-04T05:00:23;101291.53;;;2.80;49.93
48364;BME280;34170;54.364;18.582;2023-04-04T05:02:53;101285.69;;;2.72;50.20
48364;BME280;34170;54.364;18.582;2023-04-04T05:05:34;101295.00;;;2.42;52.16
48364;BME280;34170;54.364;18.582;2023-04-04T05:08:06;101308.94;;;2.47;53.35
48364;BME280;34170;54.364;18.582;2023-04-04T05:10:37;101311.22;;;2.36;53.38
48364;BME280;34170;54.364;18.582;2023-04-04T05:13:06;101309.59;;;2.32;55.38
48364;BME280;34170;54.364;18.582;2023-04-04T05:15:40;101299.69;;;2.56;55.80
48364;BME280;34170;54.364;18.582;2023-04-04T05:18:08;101291.25;;;2.67;56.07
48364;BME280;34170;54.364;18.582;2023-04-04T05:20:36;101299.09;;;2.50;57.24
48364;BME280;34170;54.364;18.582;2023-04-04T05:23:06;101297.34;;;2.69;56.05
48364;BME280;34170;54.364;18.582;2023-04-04T05:25:40;101289.72;;;2.80;55.64
48364;BME280;34170;54.364;18.582;2023-04-04T05:28:07;101296.31;;;2.53;56.04
48364;BME280;34170;54.364;18.582;2023-04-04T05:30:37;101302.34;;;2.75;55.65
48364;BME280;34170;54.364;18.582;2023-04-04T05:33:17;101286.78;;;2.67;55.85
48364;BME280;34170;54.364;18.582;2023-04-04T05:35:53;101295.75;;;2.65;55.58
48364;BME280;34170;54.364;18.582;2023-04-04T05:38:21;101291.94;;;2.90;54.67
48364;BME280;34170;54.364;18.582;2023-04-04T05:40:53;101298.00;;;3.12;53.81
48364;BME280;34170;54.364;18.582;2023-04-04T05:43:21;101297.47;;;3.42;53.47
48364;BME280;34170;54.364;18.582;2023-04-04T05:46:12;101296.88;;;3.72;52.34
48364;BME280;34170;54.364;18.582;2023-04-04T05:48:44;101291.44;;;3.56;51.90
48364;BME280;34170;54.364;18.582;2023-04-04T05:51:13;101290.22;;;3.80;51.36
48364;BME280;34170;54.364;18.582;2023-04-04T05:53:48;101284.06;;;3.80;51.50
48364;BME280;34170;54.364;18.582;2023-04-04T05:56:21;101291.50;;;4.08;51.08
48364;BME280;34170;54.364;18.582;2023-04-04T05:58:48;101294.66;;;4.50;49.17
48364;BME280;34170;54.364;18.582;2023-04-04T06:01:16;101286.03;;;4.45;50.20
48364;BME280;34170;54.364;18.582;2023-04-04T06:03:45;101300.97;;;4.31;50.66
48364;BME280;34170;54.364;18.582;2023-04-04T06:06:19;101302.19;;;4.42;50.64
48364;BME280;34170;54.364;18.582;2023-04-04T06:08:47;101299.31;;;4.29;50.90
48364;BME280;34170;54.364;18.582;2023-04-04T06:11:20;101290.50;;;4.44;49.75
48364;BME280;34170;54.364;18.582;2023-04-04T06:13:53;101296.81;;;5.08;47.34
48364;BME280;34170;54.364;18.582;2023-04-04T06:16:22;101292.75;;;7.93;39.29
48364;BME280;34170;54.364;18.582;2023-04-04T06:18:50;101294.09;;;10.35;34.53
48364;BME280;34170;54.364;18.582;2023-04-04T06:21:17;101279.94;;;10.67;32.91
48364;BME280;34170;54.364;18.582;2023-04-04T06:23:45;101282.50;;;10.35;33.17
48364;BME280;34170;54.364;18.582;2023-04-04T06:26:13;101276.34;;;10.21;33.24
48364;BME280;34170;54.364;18.582;2023-04-04T06:28:48;101284.13;;;9.29;34.27
48364;BME280;34170;54.364;18.582;2023-04-04T06:31:24;101286.31;;;7.29;36.93
48364;BME280;34170;54.364;18.582;2023-04-04T06:33:54;101287.16;;;6.59;39.16
48364;BME280;34170;54.364;18.582;2023-04-04T06:36:23;101281.13;;;5.50;41.74
48364;BME280;34170;54.364;18.582;2023-04-04T06:38:51;101279.16;;;4.90;44.14
48364;BME280;34170;54.364;18.582;2023-04-04T06:41:21;101284.69;;;4.87;45.07
48364;BME280;34170;54.364;18.582;2023-04-04T06:43:51;101274.41;;;3.95;47.50
48364;BME280;34170;54.364;18.582;2023-04-04T06:46:18;101277.69;;;4.35;47.55
48364;BME280;34170;54.364;18.582;2023-04-04T06:48:46;101276.19;;;4.63;47.49
48364;BME280;34170;54.364;18.582;2023-04-04T06:51:14;101269.06;;;4.63;47.93
48364;BME280;34170;54.364;18.582;2023-04-04T06:53:44;101265.69;;;5.09;47.01
48364;BME280;34170;54.364;18.582;2023-04-04T06:56:11;101274.25;;;4.82;48.10
48364;BME280;34170;54.364;18.582;2023-04-04T06:58:38;101274.28;;;4.98;48.06
48364;BME280;34170;54.364;18.582;2023-04-04T07:01:06;101272.44;;;5.62;46.80
48364;BME280;34170;54.364;18.582;2023-04-04T07:03:34;101265.13;;;5.50;47.46
48364;BME280;34170;54.364;18.582;2023-04-04T07:06:02;101270.47;;;5.34;47.57
48364;BME280;34170;54.364;18.582;2023-04-04T07:08:30;101269.97;;;4.80;49.36
48364;BME280;34170;54.364;18.582;2023-04-04T07:11:03;101270.91;;;4.78;49.99
48364;BME280;34170;54.364;18.582;2023-04-04T07:13:30;101258.50;;;4.28;52.75
48364;BME280;34170;54.364;18.582;2023-04-04T07:15:58;101270.06;;;4.45;52.78
48364;BME280;34170;54.364;18.582;2023-04-04T07:18:25;101257.50;;;4.47;52.92
48364;BME280;34170;54.364;18.582;2023-04-04T07:20:53;101253.75;;;4.51;53.23
48364;BME280;34170;54.364;18.582;2023-04-04T07:23:20;101247.66;;;4.15;54.03
48364;BME280;34170;54.364;18.582;2023-04-04T07:25:48;101261.66;;;4.01;54.38
48364;BME280;34170;54.364;18.582;2023-04-04T07:28:15;101249.53;;;4.13;54.12
48364;BME280;34170;54.364;18.582;2023-04-04T07:30:43;101246.75;;;4.15;53.93
48364;BME280;34170;54.364;18.582;2023-04-04T07:33:10;101259.56;;;4.08;54.96
48364;BME280;34170;54.364;18.582;2023-04-04T07:35:37;101255.56;;;4.17;54.45
48364;BME280;34170;54.364;18.582;2023-04-04T07:38:05;101249.00;;;4.40;54.22
48364;BME280;34170;54.364;18.582;2023-04-04T07:40:33;101255.25;;;4.06;55.87
48364;BME280;34170;54.364;18.582;2023-04-04T07:43:00;101252.63;;;4.22;55.29
48364;BME280;34170;54.364;18.582;2023-04-04T07:45:27;101241.69;;;4.28;54.84
48364;BME280;34170;54.364;18.582;2023-04-04T07:47:55;101260.47;;;4.58;54.11
48364;BME280;34170;54.364;18.582;2023-04-04T07:50:22;101254.31;;;5.05;52.68
48364;BME280;34170;54.364;18.582;2023-04-04T07:52:50;101247.50;;;6.94;46.86
48364;BME280;34170;54.364;18.582;2023-04-04T07:55:18;101257.00;;;8.07;44.58
48364;BME280;34170;54.364;18.582;2023-04-04T07:57:46;101244.97;;;7.60;44.11
48364;BME280;34170;54.364;18.582;2023-04-04T08:00:14;101241.22;;;7.50;43.78
48364;BME280;34170;54.364;18.582;2023-04-04T08:02:42;101231.66;;;7.73;44.23
48364;BME280;34170;54.364;18.582;2023-04-04T08:05:11;101247.41;;;11.04;37.53
48364;BME280;34170;54.364;18.582;2023-04-04T08:07:38;101255.75;;;12.61;33.80
48364;BME280;34170;54.364;18.582;2023-04-04T08:10:07;101238.19;;;14.72;30.08
48364;BME280;34170;54.364;18.582;2023-04-04T08:12:34;101235.97;;;15.13;28.39
48364;BME280;34170;54.364;18.582;2023-04-04T08:15:02;101231.34;;;16.39;25.89
48364;BME280;34170;54.364;18.582;2023-04-04T08:17:29;101244.47;;;16.78;25.48
48364;BME280;34170;54.364;18.582;2023-04-04T08:19:57;101230.81;;;15.19;28.63
48364;BME280;34170;54.364;18.582;2023-04-04T08:22:24;101229.31;;;15.53;28.35
48364;BME280;34170;54.364;18.582;2023-04-04T08:24:53;101238.03;;;18.61;24.32
48364;BME280;34170;54.364;18.582;2023-04-04T08:27:20;101229.25;;;13.95;26.71
48364;BME280;34170;54.364;18.582;2023-04-04T08:29:48;101217.16;;;12.70;29.63
48364;BME280;34170;54.364;18.582;2023-04-04T08:32:15;101221.94;;;13.07;28.66
48364;BME280;34170;54.364;18.582;2023-04-04T08:34:43;101208.34;;;16.51;25.92
48364;BME280;34170;54.364;18.582;2023-04-04T08:37:10;101203.56;;;14.28;25.65
48364;BME280;34170;54.364;18.582;2023-04-04T08:39:38;101208.31;;;11.32;28.96
48364;BME280;34170;54.364;18.582;2023-04-04T08:42:06;101209.22;;;11.42;29.60
48364;BME280;34170;54.364;18.582;2023-04-04T08:44:34;101208.66;;;11.92;29.81
48364;BME280;34170;54.364;18.582;2023-04-04T08:47:03;101225.81;;;14.22;27.79
48364;BME280;34170;54.364;18.582;2023-04-04T08:49:34;101210.25;;;7.86;36.17
48364;BME280;34170;54.364;18.582;2023-04-04T08:52:04;101220.72;;;7.36;37.77
48364;BME280;34170;54.364;18.582;2023-04-04T08:54:33;101205.47;;;8.55;35.79
48364;BME280;34170;54.364;18.582;2023-04-04T08:57:01;101191.44;;;11.19;31.14
48364;BME280;34170;54.364;18.582;2023-04-04T08:59:28;101216.91;;;9.55;32.30
48364;BME280;34170;54.364;18.582;2023-04-04T09:04:39;101213.94;;;9.47;31.64
48364;BME280;34170;54.364;18.582;2023-04-04T09:07:09;101205.63;;;9.85;31.88
48364;BME280;34170;54.364;18.582;2023-04-04T09:09:38;101204.91;;;11.51;30.29
48364;BME280;34170;54.364;18.582;2023-04-04T09:12:06;101203.25;;;11.39;29.99
48364;BME280;34170;54.364;18.582;2023-04-04T09:14:36;101200.81;;;11.36;29.91
48364;BME280;34170;54.364;18.582;2023-04-04T09:17:06;101197.06;;;11.16;29.57
48364;BME280;34170;54.364;18.582;2023-04-04T09:19:37;101206.59;;;10.31;30.66
48364;BME280;34170;54.364;18.582;2023-04-04T09:22:08;101223.19;;;10.25;30.51
48364;BME280;34170;54.364;18.582;2023-04-04T09:24:40;101192.41;;;11.29;30.39
48364;BME280;34170;54.364;18.582;2023-04-04T09:27:09;101201.00;;;9.52;32.25
48364;BME280;34170;54.364;18.582;2023-04-04T09:29:38;101198.75;;;10.84;31.38
48364;BME280;34170;54.364;18.582;2023-04-04T09:32:14;101209.22;;;12.78;29.32
48364;BME280;34170;54.364;18.582;2023-04-04T09:34:43;101202.41;;;13.64;29.20
48364;BME280;34170;54.364;18.582;2023-04-04T09:37:15;101201.69;;;13.62;27.52
48364;BME280;34170;54.364;18.582;2023-04-04T09:39:44;101208.09;;;13.70;27.48
48364;BME280;34170;54.364;18.582;2023-04-04T09:42:11;101200.91;;;11.99;28.87
48364;BME280;34170;54.364;18.582;2023-04-04T09:44:39;101197.59;;;9.02;33.95
48364;BME280;34170;54.364;18.582;2023-04-04T09:47:26;101189.75;;;9.23;35.30
48364;BME280;34170;54.364;18.582;2023-04-04T09:49:58;101199.03;;;8.82;37.00
48364;BME280;34170;54.364;18.582;2023-04-04T09:52:26;101190.78;;;10.15;33.05
48364;BME280;34170;54.364;18.582;2023-04-04T09:54:58;101204.41;;;11.57;30.45
48364;BME280;34170;54.364;18.582;2023-04-04T09:57:33;101201.41;;;8.86;33.90
48364;BME280;34170;54.364;18.582;2023-04-04T10:00:03;101198.34;;;9.04;35.64
48364;BME280;34170;54.364;18.582;2023-04-04T10:02:36;101198.16;;;9.42;34.46
48364;BME280;34170;54.364;18.582;2023-04-04T10:05:07;101186.56;;;10.46;31.89
48364;BME280;34170;54.364;18.582;2023-04-04T10:07:38;101196.94;;;11.50;30.76
48364;BME280;34170;54.364;18.582;2023-04-04T10:10:07;101191.13;;;11.87;30.46
48364;BME280;34170;54.364;18.582;2023-04-04T10:12:37;101182.75;;;10.72;31.45
48364;BME280;34170;54.364;18.582;2023-04-04T10:15:05;101175.81;;;10.46;32.26
48364;BME280;34170;54.364;18.582;2023-04-04T10:17:38;101180.50;;;9.03;32.40
48364;BME280;34170;54.364;18.582;2023-04-04T10:20:07;101184.81;;;8.68;33.78
48364;BME280;34170;54.364;18.582;2023-04-04T10:22:36;101180.69;;;9.37;34.09
48364;BME280;34170;54.364;18.582;2023-04-04T10:25:05;101175.63;;;10.03;34.58
48364;BME280;34170;54.364;18.582;2023-04-04T10:27:33;101176.28;;;8.25;36.89
48364;BME280;34170;54.364;18.582;2023-04-04T10:30:01;101177.69;;;9.99;35.53
48364;BME280;34170;54.364;18.582;2023-04-04T10:32:41;101173.56;;;10.18;34.21
48364;BME280;34170;54.364;18.582;2023-04-04T10:35:09;101185.66;;;10.23;32.90
48364;BME280;34170;54.364;18.582;2023-04-04T10:37:47;101183.78;;;11.03;32.45
48364;BME280;34170;54.364;18.582;2023-04-04T10:40:18;101182.03;;;10.36;33.24
48364;BME280;34170;54.364;18.582;2023-04-04T10:42:48;101190.88;;;9.91;33.28
48364;BME280;34170;54.364;18.582;2023-04-04T10:45:17;101178.69;;;9.27;33.77
48364;BME280;34170;54.364;18.582;2023-04-04T10:47:48;101173.09;;;9.06;33.93
48364;BME280;34170;54.364;18.582;2023-04-04T10:50:19;101173.59;;;8.50;34.56
48364;BME280;34170;54.364;18.582;2023-04-04T10:52:46;101163.97;;;9.09;33.27
48364;BME280;34170;54.364;18.582;2023-04-04T10:55:15;101167.88;;;9.87;32.09
48364;BME280;34170;54.364;18.582;2023-04-04T10:57:45;101156.81;;;9.45;34.03
48364;BME280;34170;54.364;18.582;2023-04-04T11:00:15;101175.41;;;8.63;33.76
48364;BME280;34170;54.364;18.582;2023-04-04T11:08:01;101162.63;;;6.27;39.27
48364;BME280;34170;54.364;18.582;2023-04-04T11:10:34;101156.16;;;6.73;38.32
48364;BME280;34170;54.364;18.582;2023-04-04T11:13:56;101154.94;;;7.59;34.83
48364;BME280;34170;54.364;18.582;2023-04-04T11:16:04;101149.69;;;6.90;34.61
48364;BME280;34170;54.364;18.582;2023-04-04T11:21:17;101150.78;;;5.88;38.18
48364;BME280;34170;54.364;18.582;2023-04-04T11:29:00;101136.34;;;5.02;41.73
48364;BME280;34170;54.364;18.582;2023-04-04T11:41:47;101134.75;;;4.51;44.66
48364;BME280;34170;54.364;18.582;2023-04-04T11:44:15;101127.25;;;4.26;44.77
48364;BME280;34170;54.364;18.582;2023-04-04T11:46:44;101136.84;;;4.13;40.97
48364;BME280;34170;54.364;18.582;2023-04-04T11:49:17;101132.91;;;4.36;41.73
48364;BME280;34170;54.364;18.582;2023-04-04T11:51:44;101129.94;;;3.93;42.31
48364;BME280;34170;54.364;18.582;2023-04-04T11:54:14;101112.50;;;3.87;41.83
48364;BME280;34170;54.364;18.582;2023-04-04T11:56:43;101106.38;;;4.03;42.43
48364;BME280;34170;54.364;18.582;2023-04-04T11:59:12;101113.50;;;4.18;42.90
48364;BME280;34170;54.364;18.582;2023-04-04T12:01:43;101104.72;;;4.16;42.84
48364;BME280;34170;54.364;18.582;2023-04-04T12:04:11;101108.34;;;4.31;42.35
48364;BME280;34170;54.364;18.582;2023-04-04T12:06:39;101095.03;;;4.31;42.12
48364;BME280;34170;54.364;18.582;2023-04-04T12:09:06;101111.41;;;4.07;43.12
48364;BME280;34170;54.364;18.582;2023-04-04T12:11:35;101115.47;;;4.30;42.60
48364;BME280;34170;54.364;18.582;2023-04-04T12:14:03;101110.72;;;4.04;42.24
48364;BME280;34170;54.364;18.582;2023-04-04T12:16:30;101106.56;;;4.31;42.30
48364;BME280;34170;54.364;18.582;2023-04-04T12:19:00;101112.84;;;3.97;40.16
48364;BME280;34170;54.364;18.582;2023-04-04T12:21:30;101114.44;;;4.01;40.08
48364;BME280;34170;54.364;18.582;2023-04-04T12:23:59;101112.84;;;3.81;38.87
48364;BME280;34170;54.364;18.582;2023-04-04T12:26:26;101111.63;;;3.53;41.57
48364;BME280;34170;54.364;18.582;2023-04-04T12:28:56;101104.84;;;3.81;41.96
48364;BME280;34170;54.364;18.582;2023-04-04T12:31:25;101096.28;;;3.92;42.02
48364;BME280;34170;54.364;18.582;2023-04-04T12:33:53;101102.06;;;4.16;41.99
48364;BME280;34170;54.364;18.582;2023-04-04T12:36:24;101109.75;;;3.89;40.52
48364;BME280;34170;54.364;18.582;2023-04-04T12:39:05;101089.28;;;3.73;40.23
48364;BME280;34170;54.364;18.582;2023-04-04T12:41:33;101087.72;;;4.03;40.00
48364;BME280;34170;54.364;18.582;2023-04-04T12:44:05;101094.00;;;4.33;40.76
48364;BME280;34170;54.364;18.582;2023-04-04T12:46:37;101095.09;;;3.97;42.40
48364;BME280;34170;54.364;18.582;2023-04-04T12:49:08;101099.72;;;3.94;44.31
48364;BME280;34170;54.364;18.582;2023-04-04T12:51:37;101088.16;;;4.27;42.50
48364;BME280;34170;54.364;18.582;2023-04-04T12:54:05;101111.47;;;3.90;43.83
48364;BME280;34170;54.364;18.582;2023-04-04T12:56:34;101086.31;;;3.79;44.05
48364;BME280;34170;54.364;18.582;2023-04-04T12:59:03;101086.88;;;4.18;43.62
48364;BME280;34170;54.364;18.582;2023-04-04T13:01:36;101083.97;;;4.38;42.92
48364;BME280;34170;54.364;18.582;2023-04-04T13:04:03;101076.75;;;4.41;42.57
48364;BME280;34170;54.364;18.582;2023-04-04T13:06:31;101080.19;;;4.27;43.55
48364;BME280;34170;54.364;18.582;2023-04-04T13:08:59;101088.84;;;4.14;44.77
48364;BME280;34170;54.364;18.582;2023-04-04T13:12:00;101077.75;;;3.90;46.68
48364;BME280;34170;54.364;18.582;2023-04-04T13:17:25;101089.25;;;3.91;47.27
48364;BME280;34170;54.364;18.582;2023-04-04T13:19:53;101082.38;;;3.53;48.11
48364;BME280;34170;54.364;18.582;2023-04-04T13:22:20;101094.25;;;3.63;47.54
48364;BME280;34170;54.364;18.582;2023-04-04T13:24:48;101070.13;;;3.33;48.34
48364;BME280;34170;54.364;18.582;2023-04-04T13:27:15;101089.19;;;3.75;48.20
48364;BME280;34170;54.364;18.582;2023-04-04T13:29:43;101090.63;;;3.65;47.75
48364;BME280;34170;54.364;18.582;2023-04-04T13:32:10;101089.44;;;3.37;48.05